KAGS/AGS METAR and TAF weather

Enter ICAO airport designator
Station Type Date Time Source
KAGS METAR 2019/02/20 06:53 UTC NOAA

KAGS 200653Z 08009KT 10SM OVC026 07/03 A3035 RMK AO2 SLP277 T00720033


Station Type Date Time Source
KAGS Decoded METAR 2019/02/20 06:53 UTC NOAA

AUGUSTA BUSH FIELD, GA, United States (KAGS) 33-22N 081-58W 44M
Feb 20, 2019 - 01:53 AM EST / 2019.02.20 0653 UTC
Wind: from the E (080 degrees) at 10 MPH (9 KT):0
Visibility: 10 mile(s):0
Sky conditions: overcast
Temperature: 45.0 F (7.2 C)
Dew Point: 37.9 F (3.3 C)
Relative Humidity: 76%
Pressure (altimeter): 30.35 in. Hg (1027 hPa)
ob: KAGS 200653Z 08009KT 10SM OVC026 07/03 A3035 RMK AO2 SLP277 T00720033
cycle: 7

Station Type Date Time Source
KAGS TAF 2019/02/20 06:22 UTC NOAA

TAF KAGS 200520Z 2006/2106 07010KT 6SM -RA SCT010 OVC025 WS020/11036KT
FM200800 07010KT 6SM -RA OVC012 WS020/11038KT
FM201200 04008KT 6SM -RA BR OVC008 WS020/14038KT
FM201800 04005KT 3SM -RA BR OVC007 WS020/21035KT
FM202300 VRB04KT 1/2SM FG VV003 WS020/22032KT


Example: see airport list